createdAt,value
2022-12-22T00:00:20.139Z,-2.51
2022-12-22T00:03:32.447Z,-2.49
2022-12-22T00:06:19.389Z,-2.53
2022-12-22T00:09:06.274Z,-2.54
2022-12-22T00:11:52.946Z,-2.53
2022-12-22T00:14:39.488Z,-2.52
2022-12-22T00:17:33.786Z,-2.52
2022-12-22T00:20:20.615Z,-2.48
2022-12-22T00:23:07.505Z,-2.44
2022-12-22T00:25:54.421Z,-2.39
2022-12-22T00:28:40.995Z,-2.34
2022-12-22T00:31:28.172Z,-2.34
2022-12-22T00:34:15.076Z,-2.29
2022-12-22T00:37:02.991Z,-2.33
2022-12-22T00:39:49.887Z,-2.28
2022-12-22T00:42:36.930Z,-2.28
2022-12-22T00:45:24.329Z,-2.45
2022-12-22T00:48:11.077Z,-2.50
2022-12-22T00:50:57.464Z,-2.67
2022-12-22T00:53:44.564Z,-2.75
2022-12-22T00:56:31.538Z,-2.74
2022-12-22T00:59:19.201Z,-2.87
2022-12-22T01:02:06.156Z,-2.91
2022-12-22T01:04:52.980Z,-2.90
2022-12-22T01:07:40.916Z,-2.86
2022-12-22T01:10:32.743Z,-2.87
2022-12-22T01:13:19.289Z,-2.93
2022-12-22T01:16:06.002Z,-3.01
2022-12-22T01:18:52.513Z,-3.04
2022-12-22T01:21:39.950Z,-3.01
2022-12-22T01:24:35.693Z,-3.00
2022-12-22T01:27:23.526Z,-2.87
2022-12-22T01:30:10.496Z,-2.83
2022-12-22T01:32:57.421Z,-2.81
2022-12-22T01:35:49.224Z,-2.73
2022-12-22T01:38:35.935Z,-2.68
2022-12-22T01:41:31.145Z,-2.67
2022-12-22T01:44:17.789Z,-2.70
2022-12-22T01:47:05.704Z,-2.67
2022-12-22T01:49:59.722Z,-2.69
2022-12-22T01:52:53.596Z,-2.73
2022-12-22T01:55:43.550Z,-2.75
2022-12-22T01:58:45.242Z,-2.75
2022-12-22T02:01:32.556Z,-2.76
2022-12-22T02:04:20.495Z,-2.79
2022-12-22T02:07:11.698Z,-2.83
2022-12-22T02:10:37.748Z,-2.86
2022-12-22T02:13:52.857Z,-2.83
2022-12-22T02:17:18.203Z,-2.74
2022-12-22T02:20:38.882Z,-2.66
2022-12-22T02:24:10.269Z,-2.56
2022-12-22T02:27:05.115Z,-2.61
2022-12-22T02:30:05.914Z,-2.56
2022-12-22T02:32:56.642Z,-2.62
2022-12-22T02:35:43.449Z,-2.67
2022-12-22T02:38:40.346Z,-2.71
2022-12-22T02:41:38.911Z,-2.80
2022-12-22T02:45:10.825Z,-2.88
2022-12-22T02:48:22.567Z,-2.93
2022-12-22T02:51:23.316Z,-3.04
2022-12-22T02:54:16.232Z,-3.07
2022-12-22T02:57:03.799Z,-3.22
2022-12-22T02:59:50.465Z,-3.34
2022-12-22T03:02:37.312Z,-3.34
2022-12-22T03:05:24.769Z,-3.35
2022-12-22T03:08:11.316Z,-3.41
2022-12-22T03:10:58.239Z,-3.40
2022-12-22T03:13:45.294Z,-3.44
2022-12-22T03:16:32.270Z,-3.35
2022-12-22T03:19:19.096Z,-3.18
2022-12-22T03:22:06.029Z,-3.07
2022-12-22T03:24:52.901Z,-2.94
2022-12-22T03:27:21.044Z,-2.93
2022-12-22T03:29:49.183Z,-2.96
2022-12-22T03:32:18.806Z,-2.92
2022-12-22T03:34:46.939Z,-2.87
2022-12-22T03:37:15.112Z,-2.85
2022-12-22T03:39:43.379Z,-2.84
2022-12-22T03:42:31.068Z,-2.78
2022-12-22T03:45:17.935Z,-2.81
2022-12-22T03:47:46.050Z,-2.80
2022-12-22T03:50:14.319Z,-2.70
2022-12-22T03:52:42.501Z,-2.70
2022-12-22T03:55:10.609Z,-2.67
2022-12-22T03:57:38.812Z,-2.73
2022-12-22T04:00:08.643Z,-2.86
2022-12-22T04:02:40.093Z,-2.89
2022-12-22T04:05:09.240Z,-2.89
2022-12-22T04:07:37.394Z,-2.82
2022-12-22T04:10:25.811Z,-2.77
2022-12-22T04:12:54.623Z,-2.68
2022-12-22T04:15:32.436Z,-2.61
2022-12-22T04:18:00.619Z,-2.53
2022-12-22T04:20:29.226Z,-2.47
2022-12-22T04:22:57.769Z,-2.47
2022-12-22T04:25:27.130Z,-2.38
2022-12-22T04:27:55.432Z,-2.54
2022-12-22T04:30:23.655Z,-2.49
2022-12-22T04:32:51.856Z,-2.47
2022-12-22T04:35:20.041Z,-2.49
2022-12-22T04:37:49.643Z,-2.50
2022-12-22T04:40:18.671Z,-2.54
2022-12-22T04:42:47.090Z,-2.54
2022-12-22T04:45:15.684Z,-2.59
2022-12-22T04:47:43.875Z,-2.57
2022-12-22T04:50:12.060Z,-2.59
2022-12-22T04:52:40.277Z,-2.57
2022-12-22T04:55:09.547Z,-2.57
2022-12-22T04:57:40.824Z,-2.56
2022-12-22T05:00:10.891Z,-2.51
2022-12-22T05:02:39.053Z,-2.40
2022-12-22T05:05:08.731Z,-2.37
2022-12-22T05:07:37.592Z,-2.24
2022-12-22T05:10:06.931Z,-2.22
2022-12-22T05:12:53.520Z,-2.17
2022-12-22T05:15:33.956Z,-2.14
2022-12-22T05:18:02.951Z,-2.12
2022-12-22T05:20:32.347Z,-2.15
2022-12-22T05:23:00.494Z,-2.15
2022-12-22T05:25:34.715Z,-2.14
2022-12-22T05:28:04.176Z,-2.11
2022-12-22T05:30:32.432Z,-2.11
2022-12-22T05:33:00.725Z,-2.09
2022-12-22T05:35:28.964Z,-2.12
2022-12-22T05:37:57.133Z,-2.04
2022-12-22T05:40:26.771Z,-2.01
2022-12-22T05:42:55.636Z,-1.95
2022-12-22T05:45:24.043Z,-1.84
2022-12-22T05:47:52.933Z,-1.77
2022-12-22T05:50:25.211Z,-1.66
2022-12-22T05:53:00.347Z,-1.58
2022-12-22T05:55:28.667Z,-1.57
2022-12-22T05:57:56.947Z,-1.53
2022-12-22T06:00:25.362Z,-1.49
2022-12-22T06:02:53.638Z,-1.43
2022-12-22T06:05:22.115Z,-1.41
2022-12-22T06:07:50.387Z,-1.43
2022-12-22T06:10:18.654Z,-1.44
2022-12-22T06:12:46.851Z,-1.63
2022-12-22T06:15:16.149Z,-1.67
2022-12-22T06:17:45.440Z,-1.61
2022-12-22T06:20:14.396Z,-1.66
2022-12-22T06:22:42.597Z,-1.69
2022-12-22T06:25:17.553Z,-1.69
2022-12-22T06:27:47.769Z,-1.71
2022-12-22T06:30:16.768Z,-1.68
2022-12-22T06:32:45.089Z,-1.66
2022-12-22T06:35:13.628Z,-1.61
2022-12-22T06:37:41.903Z,-1.56
2022-12-22T06:40:10.752Z,-1.45
2022-12-22T06:43:20.315Z,-1.42
2022-12-22T06:45:48.540Z,-1.36
2022-12-22T06:48:16.806Z,-1.22
2022-12-22T06:50:45.328Z,-1.17
2022-12-22T06:53:13.729Z,-1.07
2022-12-22T06:55:41.845Z,-1.05
2022-12-22T06:58:09.998Z,-1.01
2022-12-22T07:00:38.647Z,-1.01
2022-12-22T07:03:07.135Z,-0.98
2022-12-22T07:05:35.543Z,-0.98
2022-12-22T07:08:08.472Z,-0.97
2022-12-22T07:10:56.347Z,-0.97
2022-12-22T07:13:31.979Z,-0.97
2022-12-22T07:16:02.525Z,-0.93
2022-12-22T07:18:33.603Z,-0.85
2022-12-22T07:21:04.805Z,-0.79
2022-12-22T07:23:33.500Z,-0.76
2022-12-22T07:26:02.201Z,-0.72
2022-12-22T07:28:36.810Z,-0.64
2022-12-22T07:31:05.896Z,-0.60
2022-12-22T07:33:34.180Z,-0.60
2022-12-22T07:36:18.689Z,-0.57
2022-12-22T07:38:50.249Z,-0.50
2022-12-22T07:41:38.931Z,-0.45
2022-12-22T07:44:08.226Z,-0.41
2022-12-22T07:46:40.539Z,-0.40
2022-12-22T07:49:29.738Z,-0.38
2022-12-22T07:51:59.314Z,-0.34
2022-12-22T07:54:28.631Z,-0.33
2022-12-22T07:56:56.904Z,-0.27
2022-12-22T07:59:25.018Z,-0.23
2022-12-22T08:01:53.541Z,-0.20
2022-12-22T08:04:22.682Z,-0.21
2022-12-22T08:06:50.996Z,-0.18
2022-12-22T08:09:21.694Z,-0.18
2022-12-22T08:11:50.358Z,-0.08
2022-12-22T08:14:18.731Z,0.03
2022-12-22T08:16:47.090Z,0.10
2022-12-22T08:19:15.629Z,0.16
2022-12-22T08:21:50.329Z,0.16
2022-12-22T08:24:22.021Z,0.17
2022-12-22T08:26:55.791Z,0.19
2022-12-22T08:29:38.738Z,0.24
2022-12-22T08:32:07.302Z,0.28
2022-12-22T08:34:35.652Z,0.34
2022-12-22T08:37:08.016Z,0.49
2022-12-22T08:39:39.289Z,0.54
2022-12-22T08:42:11.862Z,0.56
2022-12-22T08:44:40.066Z,0.60
2022-12-22T08:47:14.855Z,0.57
2022-12-22T08:49:44.812Z,0.66
2022-12-22T08:52:18.404Z,0.76
2022-12-22T08:54:47.546Z,0.85
2022-12-22T08:57:15.751Z,0.96
2022-12-22T08:59:44.050Z,1.16
2022-12-22T09:02:12.277Z,1.27
2022-12-22T09:04:40.441Z,1.36
2022-12-22T09:07:08.895Z,1.64
2022-12-22T09:09:37.220Z,1.88
2022-12-22T09:12:06.026Z,2.03
2022-12-22T09:14:34.289Z,2.16
2022-12-22T09:17:02.582Z,2.37
2022-12-22T09:19:30.891Z,2.56
2022-12-22T09:21:58.977Z,2.51
2022-12-22T09:24:27.298Z,2.10
2022-12-22T09:26:55.570Z,2.00
2022-12-22T09:29:23.917Z,1.96
2022-12-22T09:31:52.171Z,1.90
2022-12-22T09:34:20.405Z,1.68
2022-12-22T09:36:48.681Z,1.74
2022-12-22T09:39:17.172Z,1.62
2022-12-22T09:41:53.107Z,1.57
2022-12-22T09:44:42.342Z,1.61
2022-12-22T09:47:38.947Z,1.53
2022-12-22T09:50:16.125Z,1.66
2022-12-22T09:52:50.322Z,1.64
2022-12-22T09:55:48.532Z,1.56
2022-12-22T09:58:26.227Z,1.74
2022-12-22T10:01:26.550Z,1.79
2022-12-22T10:04:12.964Z,1.80
2022-12-22T10:06:59.206Z,1.90
2022-12-22T10:12:25.101Z,1.99
2022-12-22T10:14:55.094Z,2.12
2022-12-22T10:17:26.628Z,2.17
2022-12-22T10:20:07.109Z,2.11
2022-12-22T10:22:47.601Z,2.18
2022-12-22T10:25:52.398Z,2.23
2022-12-22T10:28:27.235Z,2.35
2022-12-22T10:31:21.309Z,2.29
2022-12-22T10:33:54.851Z,2.39
2022-12-22T10:36:31.082Z,2.52
2022-12-22T10:39:11.132Z,2.67
2022-12-22T10:41:47.919Z,2.90
2022-12-22T10:44:15.920Z,2.95
2022-12-22T10:46:47.105Z,3.07
2022-12-22T10:49:20.781Z,3.08
2022-12-22T10:51:56.046Z,3.09
2022-12-22T10:54:38.516Z,3.00
2022-12-22T10:57:16.642Z,3.05
2022-12-22T10:59:56.884Z,3.07
2022-12-22T11:02:38.487Z,3.12
2022-12-22T11:05:12.139Z,3.10
2022-12-22T11:07:43.402Z,3.18
2022-12-22T11:10:14.863Z,3.40
2022-12-22T11:12:51.708Z,3.40
2022-12-22T11:15:41.031Z,3.38
2022-12-22T11:18:34.028Z,3.27
2022-12-22T11:21:24.883Z,3.21
2022-12-22T11:24:21.817Z,3.29
2022-12-22T11:27:25.935Z,3.40
2022-12-22T11:30:20.806Z,3.47
2022-12-22T11:33:23.784Z,4.32
2022-12-22T11:36:01.236Z,5.09
2022-12-22T11:38:46.972Z,4.87
2022-12-22T11:41:33.793Z,4.89
2022-12-22T11:44:45.360Z,4.89
2022-12-22T11:47:58.233Z,4.91
2022-12-22T11:51:01.999Z,4.95
2022-12-22T11:53:55.640Z,4.95
2022-12-22T11:56:29.342Z,4.96
2022-12-22T11:59:18.864Z,4.92
2022-12-22T12:01:59.045Z,4.89
2022-12-22T12:04:39.436Z,4.81
2022-12-22T12:07:34.576Z,4.73
2022-12-22T12:10:22.347Z,4.70
2022-12-22T12:13:27.412Z,4.70
2022-12-22T12:16:37.437Z,4.69
2022-12-22T12:19:51.660Z,4.63
2022-12-22T12:22:25.873Z,4.55
2022-12-22T12:25:25.608Z,4.51
2022-12-22T12:28:05.200Z,4.43
2022-12-22T12:30:53.893Z,4.32
2022-12-22T12:34:01.127Z,4.20
2022-12-22T12:36:43.427Z,4.10
2022-12-22T12:39:31.471Z,4.00
2022-12-22T12:42:43.602Z,3.96
2022-12-22T12:45:41.295Z,3.92
2022-12-22T12:48:24.641Z,3.89
2022-12-22T12:50:59.533Z,3.88
2022-12-22T12:53:30.124Z,3.88
2022-12-22T12:56:09.415Z,3.87
2022-12-22T12:58:37.907Z,3.84
2022-12-22T13:01:12.157Z,3.84
2022-12-22T13:06:49.818Z,3.83
2022-12-22T13:09:49.845Z,3.82
2022-12-22T13:12:39.793Z,3.82
2022-12-22T13:15:30.135Z,3.82
2022-12-22T13:18:00.603Z,3.82
2022-12-22T13:20:37.493Z,3.83
2022-12-22T13:23:14.783Z,3.87
2022-12-22T13:26:00.103Z,3.87
2022-12-22T13:28:29.733Z,3.84
2022-12-22T13:31:06.577Z,3.79
2022-12-22T13:33:39.219Z,3.74
2022-12-22T13:36:18.666Z,3.70
2022-12-22T13:38:46.749Z,3.65
2022-12-22T13:41:24.971Z,3.61
2022-12-22T13:44:07.378Z,3.58
2022-12-22T13:46:37.565Z,3.58
2022-12-22T13:49:13.693Z,3.57
2022-12-22T13:51:48.900Z,3.56
2022-12-22T13:54:39.419Z,3.56
2022-12-22T13:57:22.282Z,3.56
2022-12-22T13:59:52.149Z,3.55
2022-12-22T14:02:22.581Z,3.51
2022-12-22T14:05:09.035Z,3.48
2022-12-22T14:07:37.267Z,3.46
2022-12-22T14:10:07.462Z,3.44
2022-12-22T14:12:44.794Z,3.45
2022-12-22T14:15:19.435Z,3.45
2022-12-22T14:17:52.658Z,3.46
2022-12-22T14:20:38.131Z,3.45
2022-12-22T14:23:12.657Z,3.43
2022-12-22T14:25:44.196Z,3.43
2022-12-22T14:28:39.385Z,3.41
2022-12-22T14:31:08.347Z,3.40
2022-12-22T14:33:36.711Z,3.38
2022-12-22T14:36:20.806Z,3.36
2022-12-22T14:38:54.884Z,3.35
2022-12-22T14:41:43.049Z,3.32
2022-12-22T14:44:28.405Z,3.32
2022-12-22T14:47:17.922Z,3.32
2022-12-22T14:50:26.674Z,3.56
2022-12-22T14:52:58.845Z,3.86
2022-12-22T14:55:39.797Z,4.04
2022-12-22T14:58:16.269Z,4.18
2022-12-22T15:01:09.360Z,4.26
2022-12-22T15:03:38.982Z,4.33
2022-12-22T15:06:29.487Z,4.41
2022-12-22T15:09:07.338Z,4.45
2022-12-22T15:11:39.031Z,4.47
2022-12-22T15:14:15.531Z,4.47
2022-12-22T15:16:45.549Z,4.44
2022-12-22T15:19:22.513Z,4.43
2022-12-22T15:21:51.893Z,4.41
2022-12-22T15:24:20.047Z,4.39
2022-12-22T15:26:48.324Z,4.35
2022-12-22T15:29:16.639Z,4.32
2022-12-22T15:31:45.035Z,4.29
2022-12-22T15:34:30.965Z,4.25
2022-12-22T15:36:59.149Z,4.22
2022-12-22T15:39:30.933Z,4.19
2022-12-22T15:42:05.928Z,4.17
2022-12-22T15:44:38.667Z,4.13
2022-12-22T15:47:10.680Z,4.11
2022-12-22T15:49:40.316Z,4.09
2022-12-22T15:52:13.323Z,4.06
2022-12-22T15:54:41.826Z,4.05
2022-12-22T15:57:14.231Z,4.02
2022-12-22T15:59:45.935Z,3.96
2022-12-22T16:02:16.693Z,3.93
2022-12-22T16:04:46.842Z,3.92
2022-12-22T16:07:16.831Z,3.90
2022-12-22T16:09:49.285Z,3.88
2022-12-22T16:12:20.999Z,3.85
2022-12-22T16:14:56.431Z,3.82
2022-12-22T16:17:28.752Z,3.81
2022-12-22T16:19:58.927Z,3.80
2022-12-22T16:22:46.490Z,3.78
2022-12-22T16:25:43.221Z,3.78
2022-12-22T16:28:41.719Z,3.76
2022-12-22T16:32:03.335Z,3.75
2022-12-22T16:34:43.985Z,3.73
2022-12-22T16:37:17.301Z,3.73
2022-12-22T16:39:52.838Z,3.73
2022-12-22T16:45:23.308Z,3.70
2022-12-22T16:47:53.972Z,3.67
2022-12-22T16:50:32.437Z,3.65
2022-12-22T16:53:05.359Z,3.69
2022-12-22T16:55:35.947Z,3.73
2022-12-22T16:58:12.988Z,3.75
2022-12-22T17:00:45.220Z,3.82
2022-12-22T17:03:24.391Z,3.90
2022-12-22T17:05:56.309Z,3.96
2022-12-22T17:08:28.018Z,4.00
2022-12-22T17:11:10.388Z,4.05
2022-12-22T17:13:39.690Z,4.07
2022-12-22T17:16:19.036Z,4.08
2022-12-22T17:18:48.185Z,4.08
2022-12-22T17:21:19.187Z,4.07
2022-12-22T17:23:52.019Z,4.04
2022-12-22T17:26:32.024Z,4.01
2022-12-22T17:29:00.996Z,4.00
2022-12-22T17:31:29.881Z,3.95
2022-12-22T17:33:58.285Z,3.93
2022-12-22T17:36:35.876Z,3.90
2022-12-22T17:39:05.140Z,3.88
2022-12-22T17:41:33.869Z,3.84
2022-12-22T17:44:03.421Z,3.81
2022-12-22T17:46:37.541Z,3.77
2022-12-22T17:49:05.689Z,3.75
2022-12-22T17:51:34.155Z,3.71
2022-12-22T17:54:02.574Z,3.71
2022-12-22T17:56:31.333Z,3.70
2022-12-22T17:58:59.449Z,3.67
2022-12-22T18:01:32.501Z,3.64
2022-12-22T18:04:01.041Z,3.63
2022-12-22T18:06:34.561Z,3.60
2022-12-22T18:09:26.812Z,3.58
2022-12-22T18:11:59.274Z,3.55
2022-12-22T18:14:32.604Z,3.52
2022-12-22T18:17:35.513Z,3.49
2022-12-22T18:20:33.485Z,3.45
2022-12-22T18:23:32.235Z,3.49
2022-12-22T18:26:01.883Z,3.53
2022-12-22T18:28:32.303Z,3.55
2022-12-22T18:31:00.557Z,3.62
2022-12-22T18:33:28.707Z,3.70
2022-12-22T18:35:59.212Z,3.77
2022-12-22T18:38:33.814Z,3.81
2022-12-22T18:41:02.370Z,3.84
2022-12-22T18:43:30.632Z,3.84
2022-12-22T18:45:58.864Z,3.84
2022-12-22T18:48:28.262Z,3.83
2022-12-22T18:50:56.684Z,3.81
2022-12-22T18:53:29.581Z,3.78
2022-12-22T18:55:58.742Z,3.71
2022-12-22T18:58:29.170Z,3.64
2022-12-22T19:01:03.852Z,3.63
2022-12-22T19:03:34.021Z,3.62
2022-12-22T19:06:04.814Z,3.60
2022-12-22T19:08:35.462Z,3.60
2022-12-22T19:11:08.379Z,3.60
2022-12-22T19:13:45.535Z,3.60
2022-12-22T19:16:19.788Z,3.57
2022-12-22T19:18:51.221Z,3.54
2022-12-22T19:21:21.048Z,3.52
2022-12-22T19:23:50.560Z,3.46
2022-12-22T19:26:27.015Z,3.41
2022-12-22T19:29:01.751Z,3.39
2022-12-22T19:31:35.252Z,3.37
2022-12-22T19:34:10.052Z,3.39
2022-12-22T19:36:41.713Z,3.41
2022-12-22T19:39:10.189Z,3.43
2022-12-22T19:42:03.496Z,3.43
2022-12-22T19:44:34.805Z,3.45
2022-12-22T19:47:03.822Z,3.46
2022-12-22T19:49:32.018Z,3.44
2022-12-22T19:52:00.817Z,3.43
2022-12-22T19:54:32.473Z,3.45
2022-12-22T19:57:06.864Z,3.49
2022-12-22T19:59:47.732Z,3.50
2022-12-22T20:02:22.559Z,3.50
2022-12-22T20:04:53.253Z,3.48
2022-12-22T20:07:25.599Z,3.46
2022-12-22T20:09:53.945Z,3.44
2022-12-22T20:12:26.471Z,3.42
2022-12-22T20:14:55.315Z,3.38
2022-12-22T20:17:23.714Z,3.36
2022-12-22T20:19:51.828Z,3.32
2022-12-22T20:22:22.712Z,3.27
2022-12-22T20:24:51.513Z,3.22
2022-12-22T20:27:31.657Z,3.17
2022-12-22T20:30:00.149Z,3.14
2022-12-22T20:32:29.007Z,3.11
2022-12-22T20:34:57.284Z,3.10
2022-12-22T20:37:25.699Z,3.09
2022-12-22T20:39:53.990Z,3.09
2022-12-22T20:42:24.698Z,3.08
2022-12-22T20:45:03.442Z,3.07
2022-12-22T20:47:34.313Z,3.07
2022-12-22T20:50:02.542Z,3.12
2022-12-22T20:52:30.732Z,3.16
2022-12-22T20:54:59.023Z,3.21
2022-12-22T20:57:27.896Z,3.27
2022-12-22T20:59:56.930Z,3.33
2022-12-22T21:02:29.409Z,3.39
2022-12-22T21:04:58.102Z,3.45
2022-12-22T21:07:27.474Z,3.50
2022-12-22T21:09:55.615Z,3.51
2022-12-22T21:12:25.043Z,3.52
2022-12-22T21:14:53.404Z,3.53
2022-12-22T21:17:24.620Z,3.55
2022-12-22T21:19:53.008Z,3.57
2022-12-22T21:22:21.428Z,3.58
2022-12-22T21:24:49.831Z,3.60
2022-12-22T21:27:20.540Z,3.58
2022-12-22T21:29:48.737Z,3.57
2022-12-22T21:32:16.981Z,3.56
2022-12-22T21:34:45.086Z,3.54
2022-12-22T21:37:18.970Z,3.52
2022-12-22T21:39:48.528Z,3.50
2022-12-22T21:42:20.010Z,3.46
2022-12-22T21:44:48.281Z,3.42
2022-12-22T21:47:20.862Z,3.39
2022-12-22T21:49:49.056Z,3.37
2022-12-22T21:52:17.227Z,3.35
2022-12-22T21:54:45.489Z,3.33
2022-12-22T21:57:18.400Z,3.32
2022-12-22T21:59:47.148Z,3.29
2022-12-22T22:02:18.271Z,3.24
2022-12-22T22:04:54.114Z,3.20
2022-12-22T22:07:23.368Z,3.24
2022-12-22T22:09:51.620Z,3.28
2022-12-22T22:12:37.029Z,3.34
2022-12-22T22:15:07.999Z,3.39
2022-12-22T22:17:36.204Z,3.45
2022-12-22T22:20:06.752Z,3.50
2022-12-22T22:22:35.158Z,3.53
2022-12-22T22:25:04.142Z,3.55
2022-12-22T22:27:32.335Z,3.60
2022-12-22T22:30:00.507Z,3.63
2022-12-22T22:32:29.145Z,3.65
2022-12-22T22:34:57.311Z,3.63
2022-12-22T22:37:25.628Z,3.62
2022-12-22T22:39:53.748Z,3.61
2022-12-22T22:42:21.982Z,3.62
2022-12-22T22:44:50.158Z,3.60
2022-12-22T22:47:18.360Z,3.59
2022-12-22T22:49:46.659Z,3.60
2022-12-22T22:52:18.893Z,3.60
2022-12-22T22:54:47.726Z,3.59
2022-12-22T22:57:18.319Z,3.56
2022-12-22T22:59:48.257Z,3.54
2022-12-22T23:02:20.099Z,3.53
2022-12-22T23:04:50.995Z,3.53
2022-12-22T23:07:19.393Z,3.53
2022-12-22T23:09:47.566Z,3.51
2022-12-22T23:12:15.935Z,3.49
2022-12-22T23:14:44.096Z,3.50
2022-12-22T23:17:12.494Z,3.51
2022-12-22T23:19:42.026Z,3.51
2022-12-22T23:22:10.341Z,3.52
2022-12-22T23:24:38.904Z,3.56
2022-12-22T23:27:07.400Z,3.59
2022-12-22T23:29:37.053Z,3.63
2022-12-22T23:32:06.232Z,3.69
2022-12-22T23:34:35.995Z,3.73
2022-12-22T23:37:04.715Z,3.77
2022-12-22T23:39:37.473Z,3.80
2022-12-22T23:42:06.056Z,3.81
2022-12-22T23:44:36.460Z,3.82
2022-12-22T23:47:05.025Z,3.83
2022-12-22T23:49:33.340Z,3.84
2022-12-22T23:52:01.643Z,3.86
2022-12-22T23:54:30.464Z,3.86
2022-12-22T23:56:59.416Z,3.85
2022-12-22T23:59:29.943Z,3.83
